Albany, Georgia
Current Conditions -  °F | °C
As of 7:53 AM on Thursday 23 Oct 2014 (Local Time) from KABY Reporting Station
Clear Clear  
Wind Chill: 47°   Ceiling: Unl
Heat Index: 47°   Visibility: 10mi
Dew Point: 44°   Wind: 3mph
Humidity: 90%   Direction: 20°NNE
Pressure: 30.12"   Gusts: NA
Location:  31.58°N, 84.15°W
Report Text: KABY 231153Z 02003KT 10SM CLR 08/07 A3012 RMK AO2 SLP197 T00830067 10094 20072 $
Loading
Personal Weather Stations






























Interactive Weather Map
Tropical Storm Tracking
New forecast layout! Learn more

10-Day Weather Forecast

Advertisements
Track Severe Weather on mobile